This is the latest recevied weather packets stored in our database for station/object K6HFP. If no packets are shown the sender has not sent any weather packets the latest 10 day(s).
| Time | Temp. | Humidity | Pressure | Rain* | Wind** | Luminosity | Snow |
|---|---|---|---|---|---|---|---|
| 1777789577 | 16.11° C | 70% | 1009.6 hPa | 0 mm | - | 0 W/m² | - |
| 1777789275 | 16.11° C | 70% | 1009.7 hPa | 0 mm | - | 0 W/m² | - |
| 1777788972 | 16.11° C | 70% | 1009.6 hPa | 0 mm | - | 0 W/m² | - |
| 1777788668 | 16.11° C | 71% | 1010 hPa | 0 mm | - | 0 W/m² | - |
| 1777788369 | 16.11° C | 71% | 1009.6 hPa | 0 mm | - | 0 W/m² | - |
| 1777788064 | 15.56° C | 71% | 1009.6 hPa | 0 mm | - | 0 W/m² | - |
| 1777787760 | 15.56° C | 72% | 1009.6 hPa | 0 mm | - | 0 W/m² | - |
| 1777787455 | 15.56° C | 73% | 1009.6 hPa | 0 mm | - | 0 W/m² | - |
| 1777787151 | 15.56° C | 72% | 1009.8 hPa | 0 mm | - | 0 W/m² | - |
| 1777786849 | 16.11° C | 71% | 1009.9 hPa | 0 mm | - | 0 W/m² | - |
| 1777786547 | 16.11° C | 70% | 1009.8 hPa | 0 mm | - | 0 W/m² | - |
| 1777786244 | 16.11° C | 69% | 1009.7 hPa | 0 mm | - | 0 W/m² | - |
| 1777785941 | 16.67° C | 68% | 1009.9 hPa | 0 mm | - | 0 W/m² | - |
| 1777785637 | 16.67° C | 66% | 1009.9 hPa | 0 mm | - | 0 W/m² | - |
| 1777785333 | 17.22° C | 64% | 1009.9 hPa | 0 mm | - | 0 W/m² | - |
| 1777785031 | 17.22° C | 61% | 1009.7 hPa | 0 mm | - | 0 W/m² | - |
| 1777784726 | 17.78° C | 60% | 1009.7 hPa | 0 mm | - | 0 W/m² | - |
| 1777784424 | 17.78° C | 58% | 1009.7 hPa | 0 mm | - | 0 W/m² | - |
| 1777784121 | 17.78° C | 58% | 1009.4 hPa | 0 mm | - | 0 W/m² | - |
| 1777783818 | 17.22° C | 61% | 1009.7 hPa | 0 mm | - | 0 W/m² | - |
| 1777783515 | 16.67° C | 64% | 1009.4 hPa | 0 mm | - | 0 W/m² | - |
| 1777783212 | 16.67° C | 66% | 1009.5 hPa | 0 mm | - | 0 W/m² | - |
| 1777782908 | 17.22° C | 63% | 1009.3 hPa | 0 mm | - | 0 W/m² | - |
| 1777782605 | 17.78° C | 63% | 1009.3 hPa | 0 mm | - | 0 W/m² | - |
| 1777782302 | 17.78° C | 62% | 1009.4 hPa | 0 mm | - | 0 W/m² | - |
* Rain latest hour (hover to see other rain measurements)
** Current wind speed in m/s (hover to see current wind gust speed)